Time;durP1;ratioP1;P1;durP2;ratioP2;P2;SDS_P1;SDS_P2;PMS_P1;PMS_P2;Temp;Humidity;BMP_temperature;BMP_pressure;BME280_temperature;BME280_humidity;BME280_pressure;Samples;Min_cycle;Max_cycle;Signal;HPM_P1;HPM_P2
2022/10/28 00:01:15;;;;;;;0.50;0.30;;;;;;;15.48;64.37;96498.66;5132610;27;20430;-55
2022/10/28 00:03:45;;;;;;;0.50;0.50;;;;;;;15.19;65.92;96490.38;5132525;27;20446;-55
2022/10/28 00:06:16;;;;;;;0.60;0.57;;;;;;;15.32;65.06;96488.22;5132491;27;20505;-55
2022/10/28 00:08:44;;;;;;;0.40;0.20;;;;;;;15.39;65.06;96512.78;5132480;27;20435;-55
2022/10/28 00:11:15;;;;;;;0.40;0.20;;;;;;;15.53;64.46;96501.31;5132568;27;20433;-55
2022/10/28 00:13:45;;;;;;;0.40;0.20;;;;;;;15.51;64.40;96497.31;5132495;27;20448;-55
2022/10/28 00:16:16;;;;;;;0.50;0.37;;;;;;;15.48;64.62;96504.00;5132447;27;20434;-56
2022/10/28 00:18:44;;;;;;;0.50;0.40;;;;;;;15.64;64.25;96502.88;5132602;27;20430;-55
2022/10/28 00:21:14;;;;;;;0.50;0.40;;;;;;;15.30;65.17;96499.19;5132742;27;20806;-55
2022/10/28 00:23:42;;;;;;;0.40;0.20;;;;;;;15.33;65.17;96503.19;5132481;27;20436;-55
2022/10/28 00:26:13;;;;;;;2.30;1.90;;;;;;;15.37;64.78;96501.56;5131945;27;20485;-55
2022/10/28 00:28:42;;;;;;;0.40;0.30;;;;;;;15.41;64.93;96499.94;5132860;27;20430;-55
2022/10/28 00:31:13;;;;;;;0.57;0.47;;;;;;;14.70;67.60;96494.66;5135627;27;20433;-55
2022/10/28 00:33:42;;;;;;;0.40;0.40;;;;;;;14.29;69.40;96511.66;5137157;27;20425;-55
2022/10/28 00:36:13;;;;;;;0.47;0.40;;;;;;;14.90;66.83;96507.22;5136715;27;20432;-55
2022/10/28 00:38:43;;;;;;;0.40;0.20;;;;;;;15.17;65.98;96510.41;5136719;27;20429;-56
2022/10/28 00:41:14;;;;;;;0.40;0.30;;;;;;;15.25;65.68;96507.97;5136876;27;20430;-55
2022/10/28 00:43:44;;;;;;;0.40;0.40;;;;;;;15.08;66.23;96507.47;5136912;27;20780;-55
2022/10/28 00:46:19;;;;;;;0.50;0.47;;;;;;;15.12;65.77;96511.22;5136773;27;20468;-55
2022/10/28 00:48:54;;;;;;;0.50;0.30;;;;;;;14.95;66.04;96501.88;5136444;27;20413;-55
2022/10/28 00:51:25;;;;;;;0.40;0.20;;;;;;;15.05;65.68;96500.00;5136674;27;20448;-55
2022/10/28 00:53:55;;;;;;;0.40;0.20;;;;;;;14.93;66.55;96504.00;5136825;27;20806;-55
2022/10/28 00:56:25;;;;;;;0.40;0.30;;;;;;;14.77;67.19;96507.75;5136605;27;20529;-55
2022/10/28 00:59:01;;;;;;;0.40;0.20;;;;;;;14.70;67.42;96508.00;5136424;27;21002;-55
2022/10/28 01:01:29;;;;;;;0.40;0.30;;;;;;;14.70;67.38;96508.00;5135843;27;20441;-55
2022/10/28 01:04:01;;;;;;;0.40;0.30;;;;;;;14.69;67.33;96501.06;5136368;27;20517;-55
2022/10/28 01:06:30;;;;;;;0.40;0.20;;;;;;;14.69;68.04;96505.59;5136065;27;20464;-54
2022/10/28 01:08:58;;;;;;;0.40;0.33;;;;;;;14.55;69.06;96507.97;5136039;27;20432;-54
2022/10/28 01:11:45;;;;;;;0.40;0.30;;;;;;;14.71;67.67;96506.94;5136225;27;20441;-55
2022/10/28 01:14:37;;;;;;;4.53;1.23;;;;;;;14.65;67.49;96508.00;5135967;27;20425;-55
2022/10/28 01:17:27;;;;;;;0.53;0.53;;;;;;;14.38;67.96;96510.09;5136197;27;20795;-55
2022/10/28 01:20:45;;;;;;;0.40;0.30;;;;;;;14.57;67.33;96508.53;5135849;27;20452;-55
2022/10/28 01:23:26;;;;;;;0.40;0.40;;;;;;;14.46;67.33;96501.56;5072166;28;20471;-55
2022/10/28 01:26:12;;;;;;;0.40;0.20;;;;;;;14.51;67.22;96499.72;5134920;27;20477;-55
2022/10/28 01:29:03;;;;;;;0.40;0.20;;;;;;;14.65;66.50;96504.56;5135415;27;20425;-54
2022/10/28 01:31:40;;;;;;;0.40;0.30;;;;;;;14.52;66.89;96506.66;5135901;27;20791;-55
2022/10/28 01:34:17;;;;;;;0.40;0.30;;;;;;;14.34;67.45;96498.38;5136029;27;20796;-55
2022/10/28 01:36:56;;;;;;;3.70;0.50;;;;;;;14.20;68.53;96508.69;5135569;27;20448;-54
2022/10/28 01:39:32;;;;;;;0.40;0.30;;;;;;;13.94;69.40;96509.66;5135597;27;20430;-54
2022/10/28 01:42:13;;;;;;;0.50;0.40;;;;;;;13.62;70.48;96501.81;5134683;27;20430;-54
2022/10/28 01:44:51;;;;;;;0.40;0.30;;;;;;;13.87;70.17;96501.91;5135456;27;20417;-54
2022/10/28 01:47:25;;;;;;;0.40;0.20;;;;;;;14.09;69.04;96503.59;5135329;27;20465;-55
2022/10/28 01:49:58;;;;;;;0.50;0.30;;;;;;;14.30;68.70;96508.72;5135757;27;20743;-55
2022/10/28 01:52:29;;;;;;;0.50;0.27;;;;;;;14.26;68.68;96517.50;5135016;27;20431;-55
2022/10/28 01:55:02;;;;;;;0.40;0.30;;;;;;;14.24;69.02;96504.44;5135257;27;20440;-55
2022/10/28 01:57:34;;;;;;;0.40;0.30;;;;;;;13.99;69.72;96510.47;5135489;27;20441;-55
2022/10/28 02:00:04;;;;;;;0.40;0.20;;;;;;;13.60;71.65;96511.13;5135090;27;20434;-55
2022/10/28 02:02:37;;;;;;;0.90;0.90;;;;;;;14.11;68.80;96510.28;5135208;27;20532;-54
2022/10/28 02:05:27;;;;;;;0.70;0.27;;;;;;;14.17;68.38;96508.41;5135051;27;20429;-55
2022/10/28 02:08:03;;;;;;;0.43;0.27;;;;;;;14.16;68.34;96502.28;5134801;27;20533;-55
2022/10/28 02:10:42;;;;;;;0.97;0.53;;;;;;;13.38;71.43;96521.94;5135213;27;20432;-55
2022/10/28 02:13:14;;;;;;;0.43;0.30;;;;;;;12.81;74.93;96512.94;5135043;27;20796;-54
2022/10/28 02:15:51;;;;;;;0.50;0.30;;;;;;;13.19;76.21;96520.72;5134856;27;20430;-54
2022/10/28 02:18:27;;;;;;;0.40;0.40;;;;;;;13.66;73.17;96512.75;5134759;27;20418;-55
2022/10/28 02:21:01;;;;;;;0.40;0.30;;;;;;;13.74;72.46;96520.22;5135101;27;20425;-55
2022/10/28 02:23:43;;;;;;;0.40;0.30;;;;;;;13.63;73.27;96515.94;5134711;27;20429;-55
2022/10/28 02:26:18;;;;;;;1.20;0.37;;;;;;;13.97;70.12;96498.47;5134466;27;20468;-54
2022/10/28 02:28:54;;;;;;;0.40;0.30;;;;;;;14.10;69.38;96514.00;5134753;27;20796;-55
2022/10/28 02:31:26;;;;;;;0.40;0.20;;;;;;;14.22;69.30;96519.09;5134753;27;20442;-54
2022/10/28 02:34:01;;;;;;;0.40;0.20;;;;;;;13.80;70.43;96504.03;5134549;27;20426;-55
2022/10/28 02:36:34;;;;;;;0.60;0.40;;;;;;;14.24;69.71;96519.63;5134594;27;20436;-55
2022/10/28 02:39:06;;;;;;;0.50;0.40;;;;;;;13.56;73.42;96528.69;5134160;27;20433;-54
2022/10/28 02:41:40;;;;;;;0.40;0.20;;;;;;;13.06;77.22;96524.63;5134277;27;20884;-54
2022/10/28 02:44:11;;;;;;;0.50;0.30;;;;;;;13.15;76.16;96524.97;5134365;27;20785;-54
2022/10/28 02:46:45;;;;;;;0.50;0.43;;;;;;;13.24;75.37;96520.75;5134486;27;20420;-54
2022/10/28 02:49:15;;;;;;;0.50;0.50;;;;;;;13.47;73.70;96527.56;5134168;27;20473;-54
2022/10/28 02:51:46;;;;;;;0.50;0.33;;;;;;;13.14;75.14;96521.50;5133911;27;20433;-54
2022/10/28 02:54:17;;;;;;;1.40;0.93;;;;;;;13.41;73.59;96510.72;5132799;27;20418;-54
2022/10/28 02:56:51;;;;;;;0.40;0.30;;;;;;;13.70;72.02;96527.97;5134287;27;20437;-54
2022/10/28 02:59:19;;;;;;;0.50;0.40;;;;;;;13.56;72.41;96529.47;5134139;27;20426;-54
2022/10/28 03:01:48;;;;;;;0.60;0.50;;;;;;;13.70;71.57;96529.81;5133984;27;20432;-54
2022/10/28 03:04:17;;;;;;;0.50;0.40;;;;;;;12.84;74.38;96521.22;5133994;27;20797;-54
2022/10/28 03:06:46;;;;;;;0.43;0.30;;;;;;;12.78;77.14;96530.22;5133419;27;20445;-54
2022/10/28 03:09:14;;;;;;;0.70;0.30;;;;;;;13.06;75.28;96531.75;5133756;27;20525;-54
2022/10/28 03:11:42;;;;;;;0.40;0.30;;;;;;;13.30;73.59;96533.06;5133558;27;20437;-54
2022/10/28 03:14:10;;;;;;;0.47;0.27;;;;;;;13.23;74.46;96535.16;5133281;27;20429;-55
2022/10/28 03:16:42;;;;;;;0.50;0.30;;;;;;;13.27;73.80;96526.38;5133389;27;20489;-54
2022/10/28 03:19:10;;;;;;;0.40;0.20;;;;;;;13.51;72.27;96536.66;5133714;27;20437;-54
2022/10/28 03:21:40;;;;;;;0.40;0.20;;;;;;;13.58;71.70;96538.03;5133716;27;20510;-54
2022/10/28 03:24:09;;;;;;;0.40;0.27;;;;;;;13.49;71.92;96536.88;5133439;27;20417;-54
2022/10/28 03:26:37;;;;;;;0.40;0.30;;;;;;;13.25;73.33;96543.66;5133026;27;20968;-54
2022/10/28 03:29:05;;;;;;;0.83;0.83;;;;;;;13.16;73.96;96550.50;5133616;27;20568;-54
2022/10/28 03:31:34;;;;;;;0.40;0.40;;;;;;;12.97;74.85;96542.09;5133371;27;20484;-54
2022/10/28 03:34:02;;;;;;;0.47;0.30;;;;;;;13.26;73.08;96550.56;5133248;27;20893;-54
2022/10/28 03:36:30;;;;;;;0.50;0.30;;;;;;;13.42;71.77;96551.50;5133147;27;20434;-55
2022/10/28 03:39:00;;;;;;;11.00;5.00;;;;;;;13.18;73.33;96548.41;5133389;27;20438;-54
2022/10/28 03:41:28;;;;;;;0.40;0.30;;;;;;;13.20;73.41;96543.63;5133179;27;21080;-55
2022/10/28 03:43:57;;;;;;;0.50;0.40;;;;;;;13.24;72.89;96547.38;5133368;27;20429;-55
2022/10/28 03:46:25;;;;;;;0.50;0.47;;;;;;;13.38;71.58;96552.00;5133015;27;20422;-55
2022/10/28 03:48:53;;;;;;;0.57;0.57;;;;;;;13.34;70.66;96544.78;5133108;27;20499;-55
2022/10/28 03:51:21;;;;;;;10.80;0.60;;;;;;;13.27;70.55;96553.00;5132942;27;20433;-55
2022/10/28 03:56:39;;;;;;;0.53;0.37;;;;;;;13.11;71.09;96551.28;5130992;27;20426;-55
2022/10/28 03:59:09;;;;;;;0.40;0.30;;;;;;;13.34;70.90;96550.09;5130701;27;20438;-55
2022/10/28 04:01:37;;;;;;;1.20;0.50;;;;;;;12.98;71.80;96554.31;5130594;27;20528;-54
2022/10/28 04:04:06;;;;;;;0.43;0.30;;;;;;;12.77;72.81;96546.44;5130277;27;20464;-55
2022/10/28 04:06:34;;;;;;;0.70;0.60;;;;;;;12.50;73.12;96552.56;5131366;27;20432;-55
2022/10/28 04:09:02;;;;;;;3.13;0.70;;;;;;;12.60;73.54;96555.31;5132506;27;21019;-55
2022/10/28 04:11:31;;;;;;;0.53;0.40;;;;;;;12.71;73.42;96548.25;5132973;27;20428;-55
2022/10/28 04:14:00;;;;;;;0.50;0.50;;;;;;;12.77;73.11;96556.00;5132612;27;20428;-55
2022/10/28 04:16:29;;;;;;;0.50;0.30;;;;;;;12.72;73.00;96555.97;5132793;27;20921;-55
2022/10/28 04:18:57;;;;;;;0.40;0.20;;;;;;;12.61;73.95;96556.13;5132950;27;20460;-56
2022/10/28 04:21:25;;;;;;;0.40;0.27;;;;;;;12.61;73.08;96527.69;5132441;27;20434;-55
2022/10/28 04:23:54;;;;;;;0.60;0.50;;;;;;;12.82;72.75;96554.47;5132527;27;20440;-55
2022/10/28 04:26:22;;;;;;;0.40;0.30;;;;;;;12.74;72.89;96553.88;5132352;27;20483;-54
2022/10/28 04:28:51;;;;;;;0.60;0.40;;;;;;;12.72;73.31;96550.63;5132587;27;20555;-54
2022/10/28 04:31:21;;;;;;;0.50;0.40;;;;;;;12.74;72.94;96553.06;5132101;27;20430;-54
2022/10/28 04:33:49;;;;;;;0.50;0.43;;;;;;;12.72;73.16;96545.31;5132155;27;20430;-55
2022/10/28 04:36:18;;;;;;;8.13;2.33;;;;;;;12.77;73.00;96552.56;5132481;27;20437;-55
2022/10/28 04:38:46;;;;;;;0.80;0.80;;;;;;;12.97;72.46;96555.41;5132262;27;20429;-54
2022/10/28 04:41:15;;;;;;;0.70;0.70;;;;;;;13.13;71.11;96553.69;5132370;27;20413;-55
2022/10/28 04:43:43;;;;;;;0.53;0.53;;;;;;;13.18;70.39;96554.53;5132130;27;20441;-54
2022/10/28 04:46:11;;;;;;;0.77;0.77;;;;;;;13.02;70.96;96551.97;5132058;27;20921;-55
2022/10/28 04:48:41;;;;;;;0.40;0.40;;;;;;;12.93;71.10;96543.66;5132438;27;20472;-54
2022/10/28 04:51:09;;;;;;;0.40;0.30;;;;;;;13.00;71.12;96554.91;5132047;27;20432;-55
2022/10/28 04:53:37;;;;;;;0.40;0.30;;;;;;;12.92;70.71;96533.25;5132344;27;20929;-55
2022/10/28 04:56:06;;;;;;;0.40;0.40;;;;;;;12.74;72.23;96551.22;5131635;27;20446;-54
2022/10/28 04:58:34;;;;;;;0.60;0.60;;;;;;;11.75;79.71;96555.16;5132367;27;20421;-54
2022/10/28 05:01:06;;;;;;;0.53;0.40;;;;;;;11.65;82.76;96565.63;5130991;27;20427;-55
2022/10/28 05:03:34;;;;;;;0.50;0.43;;;;;;;10.68;81.92;96358.34;5132375;27;20421;-54
2022/10/28 05:06:04;;;;;;;0.80;0.73;;;;;;;11.74;84.32;96571.34;5132026;27;20432;-55
2022/10/28 05:08:33;;;;;;;10.87;1.20;;;;;;;11.78;85.54;96575.13;5132005;27;20458;-54
2022/10/28 05:11:01;;;;;;;0.80;0.80;;;;;;;12.00;84.83;96573.25;5132425;27;20452;-54
2022/10/28 05:13:29;;;;;;;1.70;0.70;;;;;;;12.17;83.35;96579.31;5132407;27;20418;-54
2022/10/28 05:15:57;;;;;;;1.17;1.13;;;;;;;11.82;86.97;96581.53;5132587;27;20438;-55
2022/10/28 05:18:26;;;;;;;0.70;0.70;;;;;;;11.01;91.46;96495.41;5135135;27;20425;-54
2022/10/28 05:20:54;;;;;;;0.87;0.87;;;;;;;11.56;92.17;96587.53;5135864;27;20418;-55
2022/10/28 05:23:24;;;;;;;0.43;0.23;;;;;;;11.78;91.33;96569.78;5135758;27;20433;-55
2022/10/28 05:25:57;;;;;;;0.80;0.80;;;;;;;12.33;86.94;96586.41;5134889;27;20529;-55
2022/10/28 05:28:26;;;;;;;0.40;0.30;;;;;;;12.44;85.49;96590.81;5135856;27;20422;-56
2022/10/28 05:30:54;;;;;;;7.40;2.00;;;;;;;12.47;84.97;96584.19;5135725;27;20434;-55
2022/10/28 05:33:23;;;;;;;0.40;0.30;;;;;;;13.10;80.72;96594.13;5135521;27;20424;-55
2022/10/28 05:35:51;;;;;;;0.40;0.40;;;;;;;13.41;78.37;96589.84;5135741;27;20450;-55
2022/10/28 05:38:19;;;;;;;0.40;0.30;;;;;;;13.43;77.64;96582.41;5134533;27;20440;-55
2022/10/28 05:40:49;;;;;;;0.90;0.90;;;;;;;13.56;76.83;96597.94;5135425;27;20448;-56
2022/10/28 05:43:17;;;;;;;2.13;0.70;;;;;;;13.43;77.32;96598.38;5135383;27;20937;-56
2022/10/28 05:45:52;;;;;;;2.30;0.80;;;;;;;13.67;76.73;96596.94;5134494;27;20430;-56
2022/10/28 05:48:21;;;;;;;0.50;0.50;;;;;;;14.12;74.33;96604.38;5135323;27;20902;-57
2022/10/28 05:50:49;;;;;;;6.73;1.40;;;;;;;14.45;72.52;96601.34;5134549;27;20473;-56
2022/10/28 05:53:18;;;;;;;0.40;0.30;;;;;;;14.53;71.87;96611.50;5135574;27;20425;-56
2022/10/28 05:55:46;;;;;;;0.50;0.30;;;;;;;15.00;70.28;96608.69;5134356;27;20431;-57
2022/10/28 05:58:16;;;;;;;0.60;0.60;;;;;;;14.97;69.52;96593.19;5135505;27;20414;-57
2022/10/28 06:00:44;;;;;;;5.40;1.13;;;;;;;15.08;68.76;96606.28;5135154;27;20433;-57
2022/10/28 06:03:13;;;;;;;0.60;0.53;;;;;;;15.33;68.24;96612.72;5134898;27;20487;-57
2022/10/28 06:05:43;;;;;;;1.90;1.17;;;;;;;15.60;67.36;96613.25;5134906;27;20940;-58
2022/10/28 06:08:13;;;;;;;1.13;1.03;;;;;;;16.20;64.20;96588.25;5134877;27;20430;-58
2022/10/28 06:10:49;;;;;;;1.37;0.80;;;;;;;15.77;64.12;96545.06;5133917;27;20473;-57
2022/10/28 06:13:23;;;;;;;0.60;0.50;;;;;;;16.29;63.97;96616.81;5135054;27;20429;-57
2022/10/28 06:15:52;;;;;;;0.50;0.40;;;;;;;16.74;62.02;96618.53;5134779;27;20418;-57
2022/10/28 06:18:21;;;;;;;1.27;0.50;;;;;;;16.77;62.25;96617.19;5135106;27;20430;-58
2022/10/28 06:20:54;;;;;;;0.50;0.40;;;;;;;17.22;61.21;96616.91;5134941;27;20433;-58
2022/10/28 06:23:22;;;;;;;6.90;0.97;;;;;;;17.36;61.70;96611.69;5134245;27;20426;-58
2022/10/28 06:25:51;;;;;;;0.80;0.60;;;;;;;17.80;59.24;96619.66;5134309;27;20473;-58
2022/10/28 06:28:19;;;;;;;0.73;0.57;;;;;;;17.46;58.97;96612.41;5134466;27;20486;-58
2022/10/28 06:30:49;;;;;;;4.40;0.90;;;;;;;17.34;60.24;96621.88;5134767;27;20462;-58
2022/10/28 06:33:17;;;;;;;0.50;0.30;;;;;;;18.01;57.91;96621.84;5134393;27;20430;-59
2022/10/28 06:35:46;;;;;;;0.50;0.30;;;;;;;18.27;57.16;96633.09;5134301;27;20430;-59
2022/10/28 06:38:14;;;;;;;2.73;1.40;;;;;;;18.45;55.80;96626.97;5134466;27;20415;-58
2022/10/28 06:40:42;;;;;;;1.67;1.43;;;;;;;18.77;54.63;96624.44;5134593;27;20427;-57
2022/10/28 06:43:13;;;;;;;0.77;0.63;;;;;;;19.01;54.18;96622.53;5134231;27;20419;-57
2022/10/28 06:45:41;;;;;;;0.90;0.80;;;;;;;19.31;53.38;96618.56;5134158;27;20433;-55
2022/10/28 06:48:11;;;;;;;0.60;0.60;;;;;;;19.97;51.48;96621.00;5134318;27;20435;-55
2022/10/28 06:50:39;;;;;;;0.90;0.90;;;;;;;19.80;51.72;96615.38;5134324;27;20807;-55
2022/10/28 06:53:09;;;;;;;1.50;1.40;;;;;;;19.81;51.66;96619.66;5134044;27;20436;-55
2022/10/28 06:55:37;;;;;;;2.13;2.03;;;;;;;19.99;51.01;96618.78;5133447;27;20445;-55
2022/10/28 06:58:05;;;;;;;2.63;1.80;;;;;;;19.84;51.47;96619.06;5133508;27;20828;-55
2022/10/28 07:00:34;;;;;;;0.90;0.90;;;;;;;20.22;50.25;96614.31;5133600;27;20437;-55
2022/10/28 07:03:02;;;;;;;1.13;0.70;;;;;;;20.35;50.43;96610.88;5133918;27;20426;-55
2022/10/28 07:05:32;;;;;;;1.33;0.97;;;;;;;20.13;51.48;96613.44;5133681;27;20463;-55
2022/10/28 07:08:00;;;;;;;3.03;0.77;;;;;;;20.56;51.34;96617.47;5133622;27;20427;-51
2022/10/28 07:10:28;;;;;;;2.00;1.90;;;;;;;20.80;49.50;96612.63;5133982;27;20474;-51
2022/10/28 07:12:56;;;;;;;1.37;1.27;;;;;;;21.99;47.54;96603.88;5133525;27;20430;-50
2022/10/28 07:15:25;;;;;;;0.77;0.73;;;;;;;21.87;47.82;96603.66;5132582;27;20437;-51
2022/10/28 07:17:53;;;;;;;0.87;0.87;;;;;;;20.26;48.46;96489.59;5132494;27;20426;-51
2022/10/28 07:20:22;;;;;;;6.63;1.13;;;;;;;21.23;48.23;96604.13;5132946;27;20440;-51
2022/10/28 07:22:57;;;;;;;0.90;0.90;;;;;;;21.75;47.77;96603.41;5133189;27;20971;-50
2022/10/28 07:25:25;;;;;;;1.20;1.10;;;;;;;21.86;47.83;96585.88;5132128;27;21004;-50
2022/10/28 07:27:53;;;;;;;1.07;0.90;;;;;;;23.04;45.26;96593.09;5133157;27;20441;-50
2022/10/28 07:30:22;;;;;;;7.67;1.30;;;;;;;23.16;44.67;96596.75;5132572;27;20480;-49
2022/10/28 07:32:51;;;;;;;0.70;0.70;;;;;;;23.27;44.28;96597.22;5132927;27;20435;-49
2022/10/28 07:35:20;;;;;;;0.83;0.60;;;;;;;22.88;44.23;96594.66;5133066;27;20770;-49
2022/10/28 07:37:48;;;;;;;0.80;0.80;;;;;;;22.95;43.33;96592.25;5133176;27;20431;-48
2022/10/28 07:40:18;;;;;;;2.73;2.63;;;;;;;23.24;42.43;96589.75;5132596;27;20913;-48
2022/10/28 07:42:46;;;;;;;1.60;1.00;;;;;;;23.80;43.00;96591.47;5132489;27;20435;-48
2022/10/28 07:45:15;;;;;;;0.50;0.40;;;;;;;24.24;41.57;96579.38;5133100;27;20442;-48
2022/10/28 07:47:44;;;;;;;0.80;0.80;;;;;;;24.47;40.88;96580.69;5132730;27;20427;-48
2022/10/28 07:50:12;;;;;;;1.47;0.80;;;;;;;24.14;40.78;96528.25;5132420;27;21036;-49
2022/10/28 07:52:41;;;;;;;1.13;0.53;;;;;;;24.56;40.09;96552.44;5131710;27;20438;-49
2022/10/28 07:55:10;;;;;;;1.77;1.67;;;;;;;24.11;40.23;96572.28;5132769;27;20501;-49
2022/10/28 07:57:40;;;;;;;0.70;0.40;;;;;;;24.13;40.03;96570.84;5132732;27;20477;-49
2022/10/28 08:00:09;;;;;;;0.57;0.57;;;;;;;24.75;40.17;96570.16;5132623;27;20430;-49
2022/10/28 08:02:37;;;;;;;1.20;1.10;;;;;;;24.91;39.62;96569.31;5132641;27;20929;-49
2022/10/28 08:05:06;;;;;;;0.90;0.73;;;;;;;25.04;39.33;96560.13;5132474;27;20427;-49
2022/10/28 08:07:35;;;;;;;0.90;0.80;;;;;;;25.53;39.08;96563.03;5132653;27;20434;-49
2022/10/28 08:10:06;;;;;;;1.50;0.60;;;;;;;24.78;39.93;96553.28;5132490;27;20775;-50
2022/10/28 08:12:35;;;;;;;3.80;1.23;;;;;;;24.75;38.54;96562.84;5132385;27;20431;-49
2022/10/28 08:15:08;;;;;;;0.60;0.50;;;;;;;25.15;37.80;96546.91;5132733;27;20423;-49
2022/10/28 08:17:36;;;;;;;0.97;0.97;;;;;;;24.98;38.18;96560.63;5132182;27;20423;-50
2022/10/28 08:20:05;;;;;;;1.00;0.47;;;;;;;25.82;37.61;96558.28;5132022;27;20437;-50
2022/10/28 08:22:34;;;;;;;16.10;1.17;;;;;;;26.12;36.15;96558.13;5132237;27;20427;-50
2022/10/28 08:25:02;;;;;;;2.20;0.93;;;;;;;26.91;36.06;96557.56;5131820;27;20981;-50
2022/10/28 08:27:30;;;;;;;0.40;0.40;;;;;;;27.81;35.50;96549.59;5132019;27;20439;-50
2022/10/28 08:29:59;;;;;;;7.40;0.70;;;;;;;26.84;35.02;96551.91;5132158;27;20434;-50
2022/10/28 08:32:28;;;;;;;0.93;0.93;;;;;;;26.96;35.44;96549.16;5132069;27;20501;-51
2022/10/28 08:34:57;;;;;;;0.50;0.43;;;;;;;27.10;35.39;96546.81;5132102;27;20938;-51
2022/10/28 08:37:25;;;;;;;0.70;0.70;;;;;;;27.36;35.46;96549.13;5132442;27;20445;-51
2022/10/28 08:39:53;;;;;;;0.67;0.67;;;;;;;26.79;35.18;96549.41;5132394;27;20437;-51
2022/10/28 08:42:35;;;;;;;0.67;0.67;;;;;;;27.05;35.18;96542.44;5131669;27;20430;-51
2022/10/28 08:45:18;;;;;;;0.50;0.50;;;;;;;27.31;34.09;96546.66;5131694;27;20434;-51
2022/10/28 08:47:57;;;;;;;3.97;0.50;;;;;;;28.21;34.81;96533.91;5132402;27;20426;-51
2022/10/28 08:50:30;;;;;;;0.40;0.30;;;;;;;28.28;34.21;96536.03;5132375;27;20872;-50
2022/10/28 08:53:01;;;;;;;0.40;0.30;;;;;;;28.07;33.36;96532.78;5136027;27;20527;-50
2022/10/28 08:55:33;;;;;;;0.57;0.47;;;;;;;28.33;32.71;96533.81;5136233;27;20813;-50
2022/10/28 08:58:08;;;;;;;3.17;0.40;;;;;;;27.85;32.75;96465.22;5135976;27;20431;-50
2022/10/28 09:00:37;;;;;;;0.53;0.50;;;;;;;29.27;31.75;96505.53;5135877;27;20429;-50
2022/10/28 09:03:21;;;;;;;0.70;0.70;;;;;;;29.38;32.21;96514.69;5136150;27;20435;-50
2022/10/28 09:05:56;;;;;;;6.67;0.70;;;;;;;30.59;30.89;96516.44;5136383;27;20818;-50
2022/10/28 09:08:27;;;;;;;1.63;1.50;;;;;;;29.52;31.83;96515.75;5135680;27;20434;-50
2022/10/28 09:11:06;;;;;;;0.50;0.40;;;;;;;29.40;31.84;96504.19;5135653;27;20458;-51
2022/10/28 09:13:48;;;;;;;0.67;0.67;;;;;;;29.62;31.04;96505.41;5135821;27;20448;-51
2022/10/28 09:16:28;;;;;;;1.17;0.40;;;;;;;29.02;31.58;96504.19;5135912;27;20515;-51
2022/10/28 09:19:04;;;;;;;1.23;0.53;;;;;;;29.49;31.92;96499.31;5135953;27;20449;-50
2022/10/28 09:21:40;;;;;;;1.53;0.70;;;;;;;30.32;29.93;96500.38;5135500;27;20433;-51
2022/10/28 09:24:19;;;;;;;0.50;0.43;;;;;;;30.24;28.65;96485.78;5135723;27;20430;-50
2022/10/28 09:26:58;;;;;;;0.60;0.47;;;;;;;30.87;28.58;96433.13;5135523;27;20476;-51
2022/10/28 09:29:40;;;;;;;0.40;0.30;;;;;;;32.16;29.11;96487.78;5135443;27;20950;-52
2022/10/28 09:32:21;;;;;;;0.60;0.53;;;;;;;32.45;27.95;96481.34;5135373;27;20462;-51
2022/10/28 09:34:57;;;;;;;0.47;0.40;;;;;;;32.18;27.40;96476.44;5135082;27;20426;-52
2022/10/28 09:37:30;;;;;;;5.40;0.80;;;;;;;31.20;28.15;96472.28;5135678;27;20457;-51
2022/10/28 09:40:05;;;;;;;0.50;0.47;;;;;;;30.69;29.29;96471.22;5135565;27;20453;-52
2022/10/28 09:42:41;;;;;;;0.50;0.40;;;;;;;30.69;28.91;96454.78;5135544;27;20486;-52
2022/10/28 09:45:15;;;;;;;2.53;0.80;;;;;;;31.06;27.80;96469.41;5135144;27;20432;-52
2022/10/28 09:47:55;;;;;;;0.70;0.70;;;;;;;31.26;29.04;96461.81;5135424;27;20828;-52
2022/10/28 09:50:30;;;;;;;0.60;0.60;;;;;;;31.61;27.70;96448.50;5135552;27;20464;-52
2022/10/28 09:53:06;;;;;;;0.40;0.40;;;;;;;31.31;27.84;96434.06;5135299;27;20549;-53
2022/10/28 09:55:34;;;;;;;0.83;0.80;;;;;;;31.63;27.41;96451.63;5135298;27;20483;-52
2022/10/28 09:58:03;;;;;;;0.40;0.30;;;;;;;31.82;27.26;96442.41;5135076;27;20468;-52
2022/10/28 10:00:32;;;;;;;0.40;0.30;;;;;;;31.71;27.30;96433.31;5135243;27;20445;-53
2022/10/28 10:03:00;;;;;;;0.77;0.77;;;;;;;31.80;26.99;96425.56;5134484;27;20445;-52
2022/10/28 10:05:33;;;;;;;0.50;0.50;;;;;;;31.69;28.11;96422.72;5134806;27;20425;-52
2022/10/28 10:08:04;;;;;;;0.40;0.40;;;;;;;31.58;27.04;96344.28;5134932;27;20430;-52
2022/10/28 10:10:43;;;;;;;0.40;0.40;;;;;;;32.08;26.53;96414.81;5134646;27;20418;-52
2022/10/28 10:13:13;;;;;;;0.37;0.30;;;;;;;31.56;27.12;96401.44;5134771;27;20567;-52
2022/10/28 10:15:46;;;;;;;0.53;0.40;;;;;;;32.17;26.87;96354.94;5134802;27;20415;-53
2022/10/28 10:18:19;;;;;;;0.50;0.50;;;;;;;32.24;26.27;96370.63;5134817;27;20778;-53
2022/10/28 10:20:51;;;;;;;0.50;0.30;;;;;;;32.41;26.77;96389.19;5134717;27;20437;-53
2022/10/28 10:23:27;;;;;;;0.40;0.30;;;;;;;33.43;26.30;96378.56;5134104;27;20418;-53
2022/10/28 10:25:59;;;;;;;1.00;0.60;;;;;;;34.15;24.88;96377.44;5133905;27;20653;-53
2022/10/28 10:28:28;;;;;;;0.80;0.40;;;;;;;32.58;25.77;96367.34;5134253;27;20195;-53
2022/10/28 10:30:59;;;;;;;0.60;0.60;;;;;;;32.85;25.52;96367.03;5134269;27;20196;-53
2022/10/28 10:33:32;;;;;;;0.50;0.47;;;;;;;34.34;25.11;96365.97;5134109;27;20185;-52
2022/10/28 10:36:05;;;;;;;0.50;0.50;;;;;;;33.78;25.12;96369.56;5134657;27;20185;-53
2022/10/28 10:38:35;;;;;;;2.20;0.30;;;;;;;33.73;24.13;96365.25;5133618;27;20181;-54
2022/10/28 10:41:03;;;;;;;0.40;0.33;;;;;;;33.48;25.68;96353.44;5134128;27;20189;-54
2022/10/28 10:43:33;;;;;;;0.53;0.40;;;;;;;33.38;25.20;96350.69;5134594;27;20191;-54
2022/10/28 10:46:04;;;;;;;0.50;0.30;;;;;;;33.99;24.58;96344.00;5134443;27;20189;-54
2022/10/28 10:48:35;;;;;;;0.40;0.30;;;;;;;33.61;24.61;96343.66;5134302;27;20259;-54
2022/10/28 10:51:12;;;;;;;0.40;0.30;;;;;;;34.00;24.20;96340.88;5133257;27;20192;-54
2022/10/28 10:53:41;;;;;;;0.70;0.37;;;;;;;34.21;24.10;96327.09;5134357;27;20207;-54
2022/10/28 10:56:11;;;;;;;0.30;0.20;;;;;;;35.50;22.96;96334.31;5134121;27;20214;-54
2022/10/28 10:58:50;;;;;;;0.40;0.40;;;;;;;34.47;22.93;96328.59;5134303;27;20188;-54
2022/10/28 11:01:21;;;;;;;1.00;0.30;;;;;;;34.12;23.31;96329.47;5133974;27;20565;-54
2022/10/28 11:03:53;;;;;;;0.40;0.30;;;;;;;33.95;24.78;96321.25;5134065;27;20565;-54
2022/10/28 11:06:26;;;;;;;0.40;0.30;;;;;;;34.89;22.92;96322.91;5134096;27;20189;-55
2022/10/28 11:08:58;;;;;;;0.50;0.50;;;;;;;34.48;23.22;96319.16;5133740;27;20181;-54
2022/10/28 11:11:34;;;;;;;1.87;0.50;;;;;;;32.32;24.62;96312.69;5133813;27;20321;-54
2022/10/28 11:14:05;;;;;;;0.30;0.20;;;;;;;33.32;24.85;96311.03;5132554;27;20200;-54
2022/10/28 11:16:34;;;;;;;0.70;0.30;;;;;;;33.51;23.78;96305.94;5133064;27;20573;-54
2022/10/28 11:19:19;;;;;;;0.50;0.47;;;;;;;32.96;25.26;96301.94;5132861;27;20195;-55
2022/10/28 11:22:03;;;;;;;0.40;0.30;;;;;;;33.59;24.09;96299.28;5133673;27;20668;-54
2022/10/28 11:24:46;;;;;;;0.30;0.27;;;;;;;34.48;24.00;96295.13;5133357;27;20196;-54
2022/10/28 11:27:27;;;;;;;0.40;0.30;;;;;;;33.92;22.90;96287.06;5133784;27;20185;-53
2022/10/28 11:29:59;;;;;;;0.50;0.40;;;;;;;32.82;23.68;96288.94;5133545;27;20526;-54
2022/10/28 11:32:42;;;;;;;0.43;0.37;;;;;;;33.45;23.61;96274.50;5133239;27;20700;-54
2022/10/28 11:35:42;;;;;;;0.30;0.20;;;;;;;33.44;23.35;96272.94;5133214;27;20196;-54
2022/10/28 11:38:26;;;;;;;0.50;0.37;;;;;;;34.26;22.59;96263.38;5133271;27;20184;-54
2022/10/28 11:41:12;;;;;;;0.70;0.50;;;;;;;34.83;22.42;96265.88;5133048;27;20312;-54
2022/10/28 11:43:49;;;;;;;0.40;0.30;;;;;;;33.78;22.58;96260.34;5132831;27;20641;-54
2022/10/28 11:46:45;;;;;;;0.30;0.30;;;;;;;34.03;22.13;96256.75;5132972;27;20617;-55
2022/10/28 11:49:45;;;;;;;0.70;0.40;;;;;;;32.31;24.23;96247.97;5132874;27;20189;-54
2022/10/28 11:52:25;;;;;;;0.40;0.40;;;;;;;33.70;22.40;96228.53;5132729;27;20676;-54
2022/10/28 11:55:07;;;;;;;0.30;0.20;;;;;;;33.96;21.79;96246.56;5132868;27;20185;-54
2022/10/28 11:57:47;;;;;;;0.40;0.30;;;;;;;33.29;22.59;96227.41;5132917;27;20189;-54
2022/10/28 12:00:27;;;;;;;0.30;0.30;;;;;;;33.32;22.34;96234.84;5132892;27;20188;-54